Time;durP1;ratioP1;P1;durP2;ratioP2;P2;SDS_P1;SDS_P2;PMS_P1;PMS_P2;Temp;Humidity;BMP_temperature;BMP_pressure;BME280_temperature;BME280_humidity;BME280_pressure;Samples;Min_cycle;Max_cycle;Signal;HPM_P1;HPM_P2
2021/10/04 00:00:20;;;;;;;1.27;0.60;;;14.10;1.00;14.80;100419.00;;;;5034423;28;20456;-78
2021/10/04 00:02:48;;;;;;;2.00;0.70;;;14.10;1.00;14.80;100407.00;;;;5025765;28;20467;-78
2021/10/04 00:05:16;;;;;;;1.40;0.60;;;14.10;1.00;14.70;100448.00;;;;5036866;28;20536;-78
2021/10/04 00:07:45;;;;;;;1.20;0.60;;;14.00;1.00;14.70;100429.00;;;;5020442;28;20441;-77
2021/10/04 00:10:18;;;;;;;2.03;0.70;;;14.00;1.00;14.60;100414.00;;;;5048847;28;20472;-78
2021/10/04 00:12:46;;;;;;;1.80;0.80;;;14.00;1.00;14.60;100436.00;;;;5041685;28;20452;-78
2021/10/04 00:15:19;;;;;;;1.47;0.73;;;14.00;1.00;14.60;100457.00;;;;5067943;28;20462;-78
2021/10/04 00:17:49;;;;;;;1.20;0.50;;;14.00;1.00;14.60;100425.00;;;;5037173;28;20484;-77
2021/10/04 00:20:19;;;;;;;1.97;0.93;;;14.00;1.00;14.40;100456.00;;;;5037537;28;20540;-77
2021/10/04 00:22:47;;;;;;;1.20;0.67;;;14.00;1.00;14.70;100468.00;;;;5021924;28;20452;-78
2021/10/04 00:25:16;;;;;;;1.83;0.60;;;14.10;1.00;14.50;100456.00;;;;5036942;28;20956;-78
2021/10/04 00:27:45;;;;;;;1.00;0.57;;;14.00;1.00;14.70;100471.00;;;;5036931;28;20832;-78
2021/10/04 00:30:17;;;;;;;1.50;0.90;;;14.00;1.00;14.70;100473.00;;;;5035301;28;20548;-77
2021/10/04 00:32:52;;;;;;;1.50;0.53;;;14.00;1.00;14.70;100475.00;;;;5036023;28;20888;-77
2021/10/04 00:35:24;;;;;;;1.00;0.60;;;14.00;1.00;14.70;100482.00;;;;5027858;23;20600;-78
2021/10/04 00:37:53;;;;;;;1.47;0.60;;;13.90;1.00;14.60;100490.00;;;;5009759;28;20453;-77
2021/10/04 00:40:28;;;;;;;1.17;0.50;;;13.90;1.00;14.60;100487.00;;;;5018383;28;20449;-78
2021/10/04 00:42:57;;;;;;;2.70;1.00;;;13.90;1.00;14.70;100486.00;;;;5016003;28;20472;-78
2021/10/04 00:45:30;;;;;;;1.90;1.23;;;13.90;1.00;14.70;100503.00;;;;4997490;28;20466;-77
2021/10/04 00:47:59;;;;;;;1.10;0.60;;;13.90;1.00;14.70;100482.00;;;;5012456;28;20469;-77
2021/10/04 00:50:29;;;;;;;1.00;0.60;;;13.90;1.00;14.70;100499.00;;;;5013321;28;20482;-77
2021/10/04 00:52:59;;;;;;;1.33;0.60;;;13.90;1.00;14.70;100481.00;;;;5011305;28;20442;-77
2021/10/04 00:55:27;;;;;;;1.60;0.70;;;13.90;1.00;14.70;100496.00;;;;5013343;28;20480;-79
2021/10/04 00:57:56;;;;;;;1.87;0.50;;;14.00;1.00;14.70;100487.00;;;;5015898;28;20996;-77
2021/10/04 01:00:28;;;;;;;1.13;0.60;;;14.00;1.00;14.70;100479.00;;;;5030524;28;20454;-77
2021/10/04 01:02:58;;;;;;;1.20;0.80;;;14.00;1.00;14.70;100453.00;;;;5014639;28;20428;-78
2021/10/04 01:05:31;;;;;;;1.20;0.60;;;14.00;1.00;14.70;100484.00;;;;5014700;28;20555;-78
2021/10/04 01:07:59;;;;;;;1.33;0.63;;;14.00;1.00;14.70;100484.00;;;;5015190;28;20521;-78
2021/10/04 01:10:28;;;;;;;2.27;0.60;;;14.00;1.00;14.60;100483.00;;;;5040805;28;20469;-78
2021/10/04 01:12:56;;;;;;;2.07;0.70;;;14.00;1.00;14.70;100469.00;;;;5013765;28;20450;-77
2021/10/04 01:15:24;;;;;;;1.50;0.70;;;14.00;1.00;14.60;100459.00;;;;5014791;28;20524;-78
2021/10/04 01:17:54;;;;;;;1.87;0.60;;;13.90;1.00;14.60;100446.00;;;;5030793;28;20954;-78
2021/10/04 01:20:27;;;;;;;1.57;0.80;;;13.90;1.00;14.60;100440.00;;;;5034017;28;20526;-78
2021/10/04 01:22:56;;;;;;;0.90;0.50;;;13.90;1.00;14.60;100440.00;;;;5022420;28;20466;-78
2021/10/04 01:25:26;;;;;;;1.20;0.60;;;13.90;1.00;14.60;100450.00;;;;4999057;28;20471;-78
2021/10/04 01:27:54;;;;;;;1.43;0.67;;;13.80;1.00;14.60;100461.00;;;;5034912;28;20426;-78
2021/10/04 01:30:25;;;;;;;1.83;0.60;;;13.80;1.00;14.60;100471.00;;;;5029091;28;20474;-78
2021/10/04 01:32:56;;;;;;;1.00;0.60;;;14.00;1.00;14.70;100453.00;;;;5007818;28;20449;-78
2021/10/04 01:35:27;;;;;;;1.00;0.63;;;13.90;1.00;14.60;100452.00;;;;5010730;28;20475;-79
2021/10/04 01:37:55;;;;;;;2.43;0.80;;;13.90;1.00;14.60;100450.00;;;;5026146;28;20461;-79
2021/10/04 01:40:24;;;;;;;1.20;0.67;;;13.90;1.00;14.60;100441.00;;;;5036251;28;20442;-78
2021/10/04 01:42:53;;;;;;;1.10;0.70;;;13.90;1.00;14.50;100447.00;;;;5019815;28;20454;-78
2021/10/04 01:45:25;;;;;;;1.23;0.80;;;13.80;1.00;14.50;100429.00;;;;5017321;28;20461;-78
2021/10/04 01:47:58;;;;;;;1.77;0.90;;;13.80;1.00;14.50;100412.00;;;;5017349;28;20444;-79
2021/10/04 01:50:31;;;;;;;1.10;0.70;;;13.80;1.00;14.50;100441.00;;;;5000628;28;20476;-78
2021/10/04 01:53:00;;;;;;;1.47;0.90;;;13.80;1.00;14.50;100439.00;;;;5021662;28;20456;-78
2021/10/04 01:55:28;;;;;;;1.27;0.70;;;13.80;1.00;14.50;100455.00;;;;5039931;28;20491;-77
2021/10/04 01:57:56;;;;;;;2.30;0.90;;;13.80;1.00;14.50;100468.00;;;;5017457;28;20460;-77
2021/10/04 02:00:26;;;;;;;1.60;1.10;;;13.80;1.00;14.50;100447.00;;;;5016717;28;20466;-78
2021/10/04 02:02:55;;;;;;;2.17;0.97;;;13.80;1.00;14.50;100420.00;;;;4993277;28;20489;-78
2021/10/04 02:05:25;;;;;;;1.80;0.87;;;13.80;1.00;14.50;100423.00;;;;4995019;28;20560;-77
2021/10/04 02:07:56;;;;;;;2.33;1.10;;;13.80;1.00;14.40;100412.00;;;;5002159;28;20541;-78
2021/10/04 02:10:28;;;;;;;2.20;0.73;;;13.80;1.00;14.50;100422.00;;;;4989057;28;20539;-79
2021/10/04 02:12:59;;;;;;;1.30;0.83;;;13.80;1.00;14.50;100471.00;;;;4987978;28;21215;-78
2021/10/04 02:15:28;;;;;;;1.10;0.90;;;13.80;1.00;14.50;100467.00;;;;4995158;28;20489;-77
2021/10/04 02:17:58;;;;;;;1.80;1.00;;;13.80;1.00;14.50;100476.00;;;;4975996;28;20955;-77
2021/10/04 02:20:30;;;;;;;2.33;1.07;;;13.80;1.00;14.40;100480.00;;;;4991245;28;20553;-77
2021/10/04 02:23:05;;;;;;;1.60;1.07;;;13.80;1.00;14.30;100481.00;;;;5012868;28;20456;-77
2021/10/04 02:25:35;;;;;;;1.67;0.97;;;13.80;1.00;14.40;100471.00;;;;4999724;28;20474;-79
2021/10/04 02:28:04;;;;;;;2.30;1.10;;;13.80;1.00;14.40;100464.00;;;;5014115;28;20464;-79
2021/10/04 02:30:33;;;;;;;2.00;1.43;;;13.80;1.00;14.40;100464.00;;;;5016348;28;20488;-79
2021/10/04 02:33:02;;;;;;;1.97;1.17;;;13.80;1.00;14.40;100465.00;;;;5023154;28;20444;-80
2021/10/04 02:35:30;;;;;;;1.50;1.00;;;13.80;1.00;14.40;100475.00;;;;5008901;28;20489;-78
2021/10/04 02:38:00;;;;;;;2.10;1.40;;;13.80;1.00;14.40;100477.00;;;;5009688;28;20480;-79
2021/10/04 02:40:29;;;;;;;1.50;1.10;;;13.80;1.00;14.50;100483.00;;;;5047206;28;20448;-78
2021/10/04 02:42:58;;;;;;;1.73;1.20;;;13.80;1.00;14.40;100483.00;;;;5027999;28;20500;-79
2021/10/04 02:45:27;;;;;;;1.70;1.23;;;13.80;1.00;14.40;100483.00;;;;5018771;28;20478;-78
2021/10/04 02:47:59;;;;;;;1.73;1.30;;;13.80;1.00;14.40;100481.00;;;;5014759;28;20496;-77
2021/10/04 02:50:32;;;;;;;1.90;1.50;;;13.80;1.00;14.30;100483.00;;;;5013106;28;20453;-78
2021/10/04 02:53:02;;;;;;;1.60;1.40;;;13.70;1.00;14.40;100490.00;;;;5012996;28;20481;-78
2021/10/04 02:55:30;;;;;;;1.70;1.40;;;13.70;1.00;14.40;100480.00;;;;5005125;28;20565;-79
2021/10/04 02:57:59;;;;;;;1.70;1.20;;;13.70;1.00;14.40;100458.00;;;;5018117;28;21022;-77
2021/10/04 03:00:32;;;;;;;2.77;1.50;;;13.70;1.00;14.40;100496.00;;;;5017926;28;20418;-83
2021/10/04 03:03:01;;;;;;;2.47;1.40;;;13.70;1.00;14.40;100483.00;;;;4998891;28;20481;-79
2021/10/04 03:05:30;;;;;;;2.00;1.67;;;13.70;1.00;14.40;100497.00;;;;5021555;28;20469;-78
2021/10/04 03:08:00;;;;;;;2.30;1.73;;;13.80;1.00;14.30;100476.00;;;;5016628;28;20445;-77
2021/10/04 03:10:30;;;;;;;4.63;2.10;;;13.70;1.00;14.40;100483.00;;;;4995318;28;20990;-77
2021/10/04 03:12:59;;;;;;;1.83;1.50;;;13.70;1.00;14.40;100476.00;;;;4996907;28;20537;-77
2021/10/04 03:15:27;;;;;;;2.17;1.77;;;13.70;1.00;14.30;100489.00;;;;4996694;28;20995;-77
2021/10/04 03:17:55;;;;;;;3.00;1.83;;;13.70;1.00;14.30;100480.00;;;;4996816;28;20446;-77
2021/10/04 03:20:25;;;;;;;2.27;1.67;;;13.60;1.00;14.40;100503.00;;;;5007256;28;20942;-79
2021/10/04 03:22:54;;;;;;;2.20;2.00;;;13.60;1.00;14.30;100499.00;;;;5016064;28;20437;-78
2021/10/04 03:25:23;;;;;;;2.27;1.80;;;13.60;1.00;14.40;100509.00;;;;5016288;28;20512;-78
2021/10/04 03:27:53;;;;;;;2.10;1.90;;;13.60;1.00;14.40;100478.00;;;;5012022;28;20496;-79
2021/10/04 03:30:21;;;;;;;2.23;2.00;;;13.70;1.00;14.40;100521.00;;;;4998105;28;20485;-78
2021/10/04 03:32:50;;;;;;;2.40;2.20;;;13.60;1.00;14.40;100521.00;;;;5004637;28;20473;-78
2021/10/04 03:35:19;;;;;;;2.70;2.00;;;13.70;1.00;14.40;100520.00;;;;5020275;28;20561;-78
2021/10/04 03:37:48;;;;;;;3.10;2.30;;;13.70;1.00;14.40;100527.00;;;;5031496;28;20440;-80
2021/10/04 03:40:16;;;;;;;2.80;2.43;;;13.70;1.00;14.40;100521.00;;;;4978710;28;20455;-78
2021/10/04 03:42:45;;;;;;;3.17;2.47;;;13.70;1.00;14.30;100529.00;;;;5018219;28;20459;-78
2021/10/04 03:45:16;;;;;;;2.80;2.60;;;13.80;1.00;14.30;100537.00;;;;5009419;28;20499;-78
2021/10/04 03:47:45;;;;;;;4.00;2.80;;;13.70;1.00;14.40;100541.00;;;;5012621;28;20449;-79
2021/10/04 03:50:15;;;;;;;4.87;2.90;;;13.70;1.00;14.40;100517.00;;;;5030049;28;20450;-78
2021/10/04 03:52:44;;;;;;;3.63;3.00;;;13.70;1.00;14.40;100550.00;;;;4994267;28;20465;-77
2021/10/04 03:55:14;;;;;;;3.50;3.20;;;13.70;1.00;14.40;100542.00;;;;5024560;28;20460;-78
2021/10/04 03:57:44;;;;;;;2.87;2.67;;;13.70;1.00;14.40;100523.00;;;;5011280;28;21156;-77
2021/10/04 04:00:18;;;;;;;4.87;3.10;;;13.70;1.00;14.40;100563.00;;;;5015535;28;20469;-79
2021/10/04 04:02:47;;;;;;;6.10;3.23;;;13.70;1.00;14.40;100545.00;;;;5013857;28;20457;-77
2021/10/04 04:05:16;;;;;;;3.80;3.50;;;13.70;1.00;14.40;100538.00;;;;5017462;28;20461;-77
2021/10/04 04:07:45;;;;;;;4.30;3.90;;;13.70;1.00;14.30;100549.00;;;;5029844;28;20957;-79
2021/10/04 04:10:16;;;;;;;4.17;3.77;;;13.70;1.00;14.40;100543.00;;;;5017985;28;20453;-76
2021/10/04 04:12:45;;;;;;;4.20;3.80;;;13.70;1.00;14.40;100573.00;;;;5005887;28;20982;-77
2021/10/04 04:15:16;;;;;;;5.00;4.43;;;13.70;1.00;14.40;100563.00;;;;5015715;28;20550;-77
2021/10/04 04:17:45;;;;;;;5.63;5.13;;;13.70;1.00;14.40;100571.00;;;;5009695;28;20461;-78
2021/10/04 04:20:14;;;;;;;5.60;5.10;;;13.70;1.00;14.30;100572.00;;;;5004666;28;20445;-77
2021/10/04 04:22:42;;;;;;;6.23;5.20;;;13.70;1.00;14.30;100535.00;;;;5020349;28;20457;-77
2021/10/04 04:25:12;;;;;;;6.70;5.20;;;13.70;1.00;14.20;100565.00;;;;5003071;28;20476;-79
2021/10/04 04:27:41;;;;;;;4.70;4.30;;;13.60;1.00;14.20;100570.00;;;;5015058;28;20821;-78
2021/10/04 04:30:12;;;;;;;6.77;6.17;;;13.60;1.00;14.20;100572.00;;;;5012798;28;20455;-78
2021/10/04 04:32:44;;;;;;;7.50;6.50;;;13.50;1.00;14.20;100560.00;;;;5030743;28;20543;-78
2021/10/04 04:35:13;;;;;;;7.00;6.30;;;13.50;1.00;14.20;100579.00;;;;5012370;28;20454;-78
2021/10/04 04:37:42;;;;;;;7.87;6.17;;;13.50;1.00;14.10;100563.00;;;;5017480;28;20464;-79
2021/10/04 04:40:14;;;;;;;6.90;6.20;;;13.50;1.00;14.10;100572.00;;;;5025336;28;20456;-77
2021/10/04 04:42:43;;;;;;;7.10;6.40;;;13.50;1.00;14.10;100589.00;;;;5018078;28;20450;-78
2021/10/04 04:45:14;;;;;;;7.03;6.33;;;13.50;1.00;14.00;100573.00;;;;5027567;28;20457;-77
2021/10/04 04:47:44;;;;;;;7.43;6.47;;;13.50;1.00;14.10;100566.00;;;;5011573;28;20887;-78
2021/10/04 04:50:14;;;;;;;7.67;6.97;;;13.40;1.00;14.10;100575.00;;;;5002018;28;20478;-78
2021/10/04 04:52:44;;;;;;;7.53;6.80;;;13.40;1.00;14.10;100589.00;;;;5014804;28;20476;-79
2021/10/04 04:55:13;;;;;;;7.67;6.90;;;13.40;1.00;14.10;100577.00;;;;5015290;28;20455;-78
2021/10/04 04:57:42;;;;;;;8.10;7.30;;;13.40;1.00;14.10;100590.00;;;;5026590;28;20456;-78
2021/10/04 05:00:14;;;;;;;8.27;7.50;;;13.40;1.00;14.10;100573.00;;;;5014992;28;20832;-79
2021/10/04 05:02:46;;;;;;;6.90;6.30;;;13.40;1.00;14.00;100587.00;;;;5027036;28;20458;-80
2021/10/04 05:05:17;;;;;;;7.40;6.63;;;13.50;1.00;14.10;100591.00;;;;5038913;28;20525;-81
2021/10/04 05:07:46;;;;;;;13.80;7.47;;;13.50;1.00;14.10;100589.00;;;;5040163;28;20453;-77
2021/10/04 05:10:14;;;;;;;10.73;8.70;;;13.40;1.00;14.10;100566.00;;;;5039567;28;20437;-78
2021/10/04 05:12:43;;;;;;;10.10;8.13;;;13.40;1.00;14.10;100603.00;;;;5014479;28;20492;-76
2021/10/04 05:15:12;;;;;;;10.80;7.43;;;13.40;1.00;14.00;100604.00;;;;5018205;28;20438;-78
2021/10/04 05:17:41;;;;;;;11.00;8.03;;;13.40;1.00;14.00;100613.00;;;;4999511;28;20472;-78
2021/10/04 05:20:13;;;;;;;8.83;7.93;;;13.40;1.00;14.00;100624.00;;;;5016332;28;20457;-78
2021/10/04 05:22:42;;;;;;;8.57;7.67;;;13.40;1.00;14.10;100604.00;;;;5010111;28;20492;-78
2021/10/04 05:25:12;;;;;;;9.40;8.40;;;13.40;1.00;14.10;100630.00;;;;5010965;28;20537;-77
2021/10/04 05:27:41;;;;;;;9.27;8.27;;;13.40;1.00;14.10;100637.00;;;;5014487;28;21034;-79
2021/10/04 05:30:12;;;;;;;10.07;8.70;;;13.50;1.00;14.10;100639.00;;;;4996707;28;20456;-78
2021/10/04 05:32:40;;;;;;;12.20;8.27;;;13.50;1.00;14.10;100648.00;;;;5020434;28;20474;-78
2021/10/04 05:35:12;;;;;;;9.87;8.87;;;13.50;1.00;14.10;100645.00;;;;5013396;28;20458;-78
2021/10/04 05:37:40;;;;;;;10.50;9.47;;;13.50;1.00;14.10;100660.00;;;;5015038;28;20449;-77
2021/10/04 05:40:10;;;;;;;11.57;8.80;;;13.50;1.00;14.10;100660.00;;;;5014142;28;20855;-77
2021/10/04 05:42:39;;;;;;;9.73;8.20;;;13.50;1.00;14.10;100665.00;;;;5013896;28;20954;-77
2021/10/04 05:45:10;;;;;;;8.90;7.90;;;13.60;1.00;14.10;100670.00;;;;4996081;28;20522;-78
2021/10/04 05:47:40;;;;;;;10.30;9.10;;;13.50;1.00;14.10;100655.00;;;;5011736;28;20541;-77
2021/10/04 05:50:13;;;;;;;9.30;8.17;;;13.50;1.00;14.10;100674.00;;;;5013340;28;20454;-78
2021/10/04 05:52:42;;;;;;;10.93;8.57;;;13.50;1.00;14.10;100675.00;;;;5012728;28;20994;-80
2021/10/04 05:55:11;;;;;;;8.83;7.93;;;13.50;1.00;14.10;100686.00;;;;5019220;28;20511;-77
2021/10/04 05:57:40;;;;;;;8.43;7.53;;;13.50;1.00;14.10;100681.00;;;;5017601;28;20450;-78
2021/10/04 06:00:12;;;;;;;9.70;8.70;;;13.40;1.00;14.00;100672.00;;;;4995009;28;20450;-78
2021/10/04 06:02:40;;;;;;;10.27;8.20;;;13.40;1.00;14.00;100683.00;;;;5008520;28;20568;-77
2021/10/04 06:05:11;;;;;;;11.37;8.50;;;13.30;1.00;14.00;100694.00;;;;5009073;28;20455;-77
2021/10/04 06:07:40;;;;;;;10.03;8.57;;;13.30;1.00;14.00;100690.00;;;;4993469;28;20500;-79
2021/10/04 06:10:11;;;;;;;10.00;9.00;;;13.30;1.00;14.10;100688.00;;;;4996747;28;20546;-80
2021/10/04 06:12:40;;;;;;;13.63;10.20;;;13.40;1.00;14.10;100693.00;;;;4996188;28;20504;-78
2021/10/04 06:15:10;;;;;;;12.60;9.77;;;13.40;1.00;14.10;100690.00;;;;5013175;28;20481;-79
2021/10/04 06:17:38;;;;;;;11.87;9.27;;;13.40;1.00;14.10;100690.00;;;;5000154;28;20801;-78
2021/10/04 06:20:09;;;;;;;10.23;8.03;;;13.40;1.00;14.10;100652.00;;;;4998918;28;20454;-78
2021/10/04 06:22:40;;;;;;;8.93;8.03;;;13.40;1.00;14.10;100703.00;;;;5024854;28;20466;-78
2021/10/04 06:25:11;;;;;;;9.57;8.33;;;13.40;1.00;14.10;100690.00;;;;5007095;28;20457;-79
2021/10/04 06:27:39;;;;;;;10.80;9.00;;;13.40;1.00;14.10;100709.00;;;;5012826;28;20536;-78
2021/10/04 06:30:09;;;;;;;9.70;8.67;;;13.40;1.00;14.10;100713.00;;;;5002077;28;20950;-79
2021/10/04 06:32:38;;;;;;;13.17;10.40;;;13.50;1.00;14.10;100744.00;;;;4996680;28;20502;-78
2021/10/04 06:35:07;;;;;;;10.40;9.40;;;13.40;1.00;14.20;100744.00;;;;5027437;28;20461;-83
2021/10/04 06:37:36;;;;;;;10.47;9.37;;;13.50;1.00;14.20;100725.00;;;;5017326;28;20450;-77
2021/10/04 06:40:07;;;;;;;10.20;9.20;;;13.50;1.00;14.20;100747.00;;;;5018090;28;20529;-79
2021/10/04 06:42:37;;;;;;;10.77;9.67;;;13.60;1.00;14.30;100734.00;;;;5004826;28;20569;-78
2021/10/04 06:45:07;;;;;;;10.40;9.40;;;13.60;1.00;14.30;100731.00;;;;5017416;28;20462;-77
2021/10/04 06:47:36;;;;;;;9.63;8.73;;;13.60;1.00;14.30;100760.00;;;;5001832;28;20553;-79
2021/10/04 06:50:05;;;;;;;9.13;8.20;;;13.60;1.00;14.30;100724.00;;;;5017853;28;20461;-79
2021/10/04 06:52:34;;;;;;;8.00;7.30;;;13.60;1.00;14.30;100753.00;;;;5016123;28;20493;-78
2021/10/04 06:55:02;;;;;;;12.70;8.10;;;13.60;1.00;14.40;100765.00;;;;5006270;28;20447;-79
2021/10/04 06:57:32;;;;;;;9.23;7.53;;;13.70;1.00;14.30;100728.00;;;;5006742;28;20852;-78
2021/10/04 07:00:01;;;;;;;8.40;7.60;;;13.70;1.00;14.40;100766.00;;;;5017841;28;20460;-79
2021/10/04 07:02:29;;;;;;;7.83;7.13;;;13.70;1.00;14.40;100738.00;;;;5016847;28;20532;-78
2021/10/04 07:04:58;;;;;;;7.80;7.10;;;13.80;1.00;14.40;100770.00;;;;5005804;28;20460;-78
2021/10/04 07:07:26;;;;;;;8.63;7.83;;;13.70;1.00;14.40;100774.00;;;;4996616;28;20458;-78
2021/10/04 07:09:55;;;;;;;7.63;6.93;;;13.70;1.00;14.40;100765.00;;;;5015247;28;20504;-78
2021/10/04 07:12:23;;;;;;;7.67;6.97;;;13.70;1.00;14.40;100766.00;;;;5017418;28;20468;-79
2021/10/04 07:14:55;;;;;;;8.00;7.20;;;13.70;1.00;14.40;100726.00;;;;5018708;28;20474;-77
2021/10/04 07:17:23;;;;;;;7.97;7.17;;;13.70;1.00;14.30;100765.00;;;;5010027;28;20542;-80
2021/10/04 07:19:52;;;;;;;7.80;7.00;;;13.70;1.00;14.40;100774.00;;;;4999171;28;20523;-77
2021/10/04 07:22:20;;;;;;;8.77;7.87;;;13.70;1.00;14.30;100770.00;;;;5018729;28;20461;-77
2021/10/04 07:24:49;;;;;;;7.07;6.37;;;13.70;1.00;14.40;100751.00;;;;5011158;28;20611;-79
2021/10/04 07:27:18;;;;;;;7.43;6.73;;;13.70;1.00;14.40;100745.00;;;;5003728;28;21095;-80
2021/10/04 07:29:46;;;;;;;7.87;7.07;;;13.70;1.00;14.40;100739.00;;;;5019286;28;20464;-79
2021/10/04 07:32:16;;;;;;;7.50;6.50;;;13.70;1.00;14.40;100727.00;;;;5028251;28;20461;-79
2021/10/04 07:34:44;;;;;;;8.33;6.23;;;13.70;1.00;14.50;100737.00;;;;5029283;28;20822;-80
2021/10/04 07:37:13;;;;;;;7.07;6.37;;;13.70;1.00;14.50;100730.00;;;;5027676;28;20470;-77
2021/10/04 07:39:42;;;;;;;7.20;6.50;;;13.70;1.00;14.50;100742.00;;;;5017393;28;20540;-79
2021/10/04 07:42:10;;;;;;;7.37;6.30;;;13.70;1.00;14.50;100724.00;;;;5031504;28;20554;-78
2021/10/04 07:44:39;;;;;;;8.50;6.57;;;13.80;1.00;14.60;100753.00;;;;5021214;28;20454;-78
2021/10/04 07:47:08;;;;;;;7.73;7.00;;;13.90;1.00;14.60;100766.00;;;;5002546;28;20465;-78
2021/10/04 07:49:38;;;;;;;10.23;8.10;;;13.90;1.00;14.70;100765.00;;;;5001957;28;20446;-79
2021/10/04 07:52:06;;;;;;;10.10;6.77;;;13.90;1.00;14.70;100783.00;;;;5003563;28;20530;-79
2021/10/04 07:54:35;;;;;;;8.40;6.67;;;14.00;1.00;14.70;100787.00;;;;5028711;28;20484;-81
2021/10/04 07:57:04;;;;;;;7.60;6.80;;;14.00;1.00;14.80;100772.00;;;;5009673;28;21222;-78
2021/10/04 07:59:32;;;;;;;7.90;5.70;;;14.00;1.00;14.80;100808.00;;;;5022257;28;20554;-80
2021/10/04 08:02:00;;;;;;;7.10;6.43;;;14.00;1.00;14.80;100811.00;;;;5012965;28;20452;-79
2021/10/04 08:04:29;;;;;;;8.60;6.67;;;14.10;1.00;14.90;100825.00;;;;5002151;28;20996;-77
2021/10/04 08:06:59;;;;;;;7.83;7.00;;;14.20;1.00;15.00;100825.00;;;;5011658;28;20552;-79
2021/10/04 08:09:27;;;;;;;8.03;6.80;;;14.20;1.00;15.00;100834.00;;;;5013934;28;20461;-77
2021/10/04 08:11:56;;;;;;;6.87;6.17;;;14.30;1.00;14.90;100831.00;;;;5012746;28;20838;-78
2021/10/04 08:14:25;;;;;;;7.67;6.23;;;14.20;1.00;14.90;100825.00;;;;5003578;28;21041;-79
2021/10/04 08:16:53;;;;;;;8.30;6.70;;;14.20;1.00;14.90;100827.00;;;;5019944;28;20500;-78
2021/10/04 08:19:23;;;;;;;7.03;6.30;;;14.20;1.00;14.90;100772.00;;;;5028236;28;20457;-79
2021/10/04 08:21:51;;;;;;;7.00;6.30;;;14.20;1.00;15.00;100823.00;;;;5022821;28;21121;-78
2021/10/04 08:24:21;;;;;;;6.80;6.20;;;14.30;1.00;15.10;100822.00;;;;5023506;28;20509;-78
2021/10/04 08:26:50;;;;;;;7.60;6.90;;;14.30;1.00;15.20;100810.00;;;;5021812;28;20923;-77
2021/10/04 08:29:18;;;;;;;7.13;6.47;;;14.40;1.00;15.30;100806.00;;;;5017747;28;20477;-78
2021/10/04 08:31:47;;;;;;;7.87;6.23;;;14.50;1.00;15.30;100780.00;;;;5014690;28;20529;-77
2021/10/04 08:34:15;;;;;;;7.50;6.90;;;14.60;1.00;15.40;100798.00;;;;5021502;28;20501;-77
2021/10/04 08:36:44;;;;;;;8.63;6.50;;;14.60;1.00;15.50;100795.00;;;;5023508;28;20493;-78
2021/10/04 08:39:12;;;;;;;7.03;6.43;;;14.70;1.00;15.60;100796.00;;;;5025773;28;20541;-78
2021/10/04 08:41:43;;;;;;;7.30;5.97;;;14.70;1.00;15.80;100800.00;;;;5023309;28;20457;-78
2021/10/04 08:44:14;;;;;;;6.90;6.30;;;14.90;1.00;15.90;100797.00;;;;5014089;28;20458;-78
2021/10/04 08:46:46;;;;;;;5.60;5.10;;;14.90;1.00;15.90;100800.00;;;;5018352;28;20568;-77
2021/10/04 08:49:17;;;;;;;6.10;5.50;;;15.00;1.00;15.80;100792.00;;;;5020049;28;20950;-77
2021/10/04 08:51:49;;;;;;;8.87;8.00;;;14.90;1.00;15.80;100784.00;;;;5035043;28;20449;-77
2021/10/04 08:54:24;;;;;;;7.00;6.40;;;14.90;1.00;15.80;100771.00;;;;5024699;28;20552;-78
2021/10/04 08:56:56;;;;;;;8.00;6.33;;;14.90;1.00;15.90;100790.00;;;;5025742;28;20470;-81
2021/10/04 08:59:26;;;;;;;7.27;6.50;;;15.00;1.00;16.00;100788.00;;;;5027487;28;20453;-78
2021/10/04 09:02:23;;;;;;;7.07;6.47;;;15.00;1.00;16.00;100789.00;;;;5021114;28;20458;-78
2021/10/04 09:05:15;;;;;;;7.10;6.40;;;15.10;1.00;16.10;100795.00;;;;5004368;28;20454;-78
2021/10/04 09:07:47;;;;;;;6.80;6.13;;;15.10;1.00;15.90;100784.00;;;;5020122;28;20457;-77
2021/10/04 09:10:17;;;;;;;9.53;7.20;;;15.00;1.00;15.80;100800.00;;;;5024759;28;20493;-77
2021/10/04 09:12:53;;;;;;;7.63;6.90;;;15.00;1.00;15.90;100799.00;;;;5039773;28;20496;-77
2021/10/04 09:15:35;;;;;;;7.40;6.63;;;15.00;1.00;15.90;100805.00;;;;5035113;28;20476;-76
2021/10/04 09:18:07;;;;;;;8.27;7.27;;;15.00;1.00;16.00;100817.00;;;;5036908;28;20456;-78
2021/10/04 09:21:09;;;;;;;7.83;7.23;;;15.00;1.00;15.90;100792.00;;;;5030176;28;20454;-79
2021/10/04 09:23:48;;;;;;;9.30;6.90;;;14.90;1.00;15.90;100805.00;;;;4943836;29;21059;-78
2021/10/04 09:26:36;;;;;;;8.40;7.60;;;14.90;1.00;15.90;100800.00;;;;5012841;28;20523;-78
2021/10/04 09:29:09;;;;;;;8.27;7.57;;;14.90;1.00;15.90;100799.00;;;;5013707;28;20458;-77
2021/10/04 09:31:39;;;;;;;8.00;7.33;;;14.90;1.00;15.90;100793.00;;;;5025350;28;20486;-78
2021/10/04 09:34:13;;;;;;;7.70;7.00;;;14.90;1.00;15.90;100799.00;;;;5002259;28;20454;-78
2021/10/04 09:36:43;;;;;;;9.97;9.07;;;15.00;1.00;15.80;100807.00;;;;5019366;28;20489;-77
2021/10/04 09:39:23;;;;;;;9.23;8.37;;;15.00;1.00;16.10;100830.00;;;;5020529;28;20462;-76
2021/10/04 09:42:10;;;;;;;7.57;6.83;;;15.00;1.00;16.00;100816.00;;;;5026163;28;20474;-78
2021/10/04 09:44:54;;;;;;;7.97;7.37;;;15.00;1.00;16.00;100819.00;;;;5008781;28;20457;-78
2021/10/04 09:47:26;;;;;;;7.03;6.43;;;15.10;1.00;16.00;100812.00;;;;5018447;28;20493;-78
2021/10/04 09:49:59;;;;;;;8.00;7.30;;;15.10;1.00;16.00;100809.00;;;;5021484;28;20540;-78
2021/10/04 09:52:45;;;;;;;7.13;6.40;;;15.10;1.00;16.00;100827.00;;;;5003033;28;20466;-78
2021/10/04 09:55:27;;;;;;;8.60;7.07;;;15.10;1.00;16.10;100827.00;;;;5006804;28;20462;-76
2021/10/04 09:58:13;;;;;;;7.77;7.17;;;15.10;1.00;16.10;100832.00;;;;5016744;28;20454;-77
2021/10/04 10:00:48;;;;;;;7.80;7.10;;;15.10;1.00;16.10;100826.00;;;;5022698;28;20453;-78
2021/10/04 10:03:19;;;;;;;7.33;6.73;;;15.20;1.00;16.00;100818.00;;;;5011189;28;20457;-80
2021/10/04 10:05:53;;;;;;;8.13;7.43;;;15.20;1.00;16.20;100821.00;;;;5027548;28;20528;-78
2021/10/04 10:08:24;;;;;;;7.37;6.67;;;15.10;1.00;16.40;100817.00;;;;5031992;28;20486;-76
2021/10/04 10:10:56;;;;;;;7.07;6.50;;;15.30;1.00;16.40;100815.00;;;;5033720;28;20477;-79
2021/10/04 10:13:28;;;;;;;8.13;7.33;;;15.40;1.00;16.40;100809.00;;;;5025036;28;20477;-77
2021/10/04 10:16:03;;;;;;;10.07;7.00;;;15.40;1.00;16.50;100825.00;;;;5016393;28;20576;-77
2021/10/04 10:18:40;;;;;;;7.67;6.97;;;15.50;1.00;16.50;100800.00;;;;5017119;28;20445;-77
2021/10/04 10:21:20;;;;;;;7.37;6.77;;;15.50;1.00;16.50;100807.00;;;;5019705;28;20457;-77
2021/10/04 10:23:53;;;;;;;7.80;7.10;;;15.60;1.00;16.50;100812.00;;;;5020072;28;20464;-79
2021/10/04 10:26:34;;;;;;;7.10;6.50;;;15.60;1.00;16.50;100811.00;;;;5022840;28;20474;-79
2021/10/04 10:29:27;;;;;;;6.73;6.13;;;15.60;1.00;16.50;100809.00;;;;5017399;28;20883;-80
2021/10/04 10:32:35;;;;;;;8.20;7.50;;;15.70;1.00;16.50;100806.00;;;;5016800;28;20454;-77
2021/10/04 10:35:04;;;;;;;7.80;7.10;;;15.70;1.00;16.70;100811.00;;;;5013601;28;20505;-78
2021/10/04 10:37:49;;;;;;;8.67;7.80;;;15.70;1.00;17.00;100809.00;;;;5017799;28;20464;-77
2021/10/04 10:40:24;;;;;;;9.07;7.80;;;15.90;1.00;17.10;100811.00;;;;5025107;28;20468;-78
2021/10/04 10:43:04;;;;;;;7.67;6.87;;;16.00;1.00;17.30;100799.00;;;;5021954;28;20483;-77
2021/10/04 10:45:43;;;;;;;7.50;6.80;;;16.30;1.00;17.30;100800.00;;;;5002148;28;20482;-77
2021/10/04 10:48:14;;;;;;;6.93;6.33;;;16.30;1.00;17.30;100798.00;;;;5014537;28;20872;-78
2021/10/04 10:50:45;;;;;;;7.70;7.00;;;16.30;1.00;17.30;100785.00;;;;5019031;28;20488;-78
2021/10/04 10:53:28;;;;;;;7.53;6.93;;;16.20;1.00;17.30;100798.00;;;;5022184;28;20462;-78
2021/10/04 10:56:02;;;;;;;7.90;7.10;;;16.20;1.00;17.30;100803.00;;;;4998762;28;20477;-79
2021/10/04 10:58:33;;;;;;;7.53;6.93;;;16.20;1.00;17.50;100797.00;;;;4996596;28;20457;-77
2021/10/04 11:01:15;;;;;;;7.53;6.93;;;16.30;1.00;17.50;100804.00;;;;4971084;28;20459;-77
2021/10/04 11:03:53;;;;;;;9.37;8.50;;;16.40;1.00;17.60;100806.00;;;;5011649;28;20986;-78
2021/10/04 11:06:42;;;;;;;7.03;6.33;;;16.50;1.00;17.70;100792.00;;;;4994099;28;20519;-77
2021/10/04 11:09:11;;;;;;;7.60;6.90;;;16.50;1.00;17.70;100796.00;;;;5011575;28;20955;-81